createdAt,value
2023-02-19T00:04:35.626Z,9.07
2023-02-19T00:09:37.193Z,9.27
2023-02-19T00:14:39.192Z,9.47
2023-02-19T00:19:40.849Z,9.17
2023-02-19T00:24:42.419Z,9.44
2023-02-19T00:29:44.226Z,9.29
2023-02-19T00:34:45.847Z,9.95
2023-02-19T00:39:56.451Z,9.89
2023-02-19T00:44:58.200Z,9.89
2023-02-19T00:49:59.818Z,8.90
2023-02-19T00:55:01.927Z,9.68
2023-02-19T01:00:04.436Z,9.00
2023-02-19T01:05:06.434Z,8.95
2023-02-19T01:10:11.164Z,9.63
2023-02-19T01:15:12.900Z,9.51
2023-02-19T01:20:14.655Z,9.34
2023-02-19T01:25:16.463Z,9.55
2023-02-19T01:30:18.262Z,10.43
2023-02-19T01:35:19.988Z,8.75
2023-02-19T01:40:21.888Z,9.25
2023-02-19T01:45:30.848Z,8.80
2023-02-19T01:50:37.955Z,9.61
2023-02-19T01:55:41.010Z,8.95
2023-02-19T02:00:48.057Z,9.36
2023-02-19T02:05:59.425Z,8.63
2023-02-19T02:11:01.172Z,8.97
2023-02-19T02:16:32.723Z,9.17
2023-02-19T02:21:55.528Z,9.36
2023-02-19T02:27:31.058Z,8.23
2023-02-19T02:32:42.821Z,9.14
2023-02-19T02:37:47.081Z,10.03
2023-02-19T02:42:48.831Z,8.47
2023-02-19T02:47:56.755Z,9.31
2023-02-19T02:53:23.613Z,8.79
2023-02-19T02:58:27.920Z,8.71
2023-02-19T03:03:31.780Z,8.64
2023-02-19T03:08:45.675Z,9.04
2023-02-19T03:14:05.927Z,8.59
2023-02-19T03:19:21.822Z,9.19
2023-02-19T03:24:48.424Z,9.17
2023-02-19T03:29:54.616Z,8.72
2023-02-19T03:35:06.510Z,8.44
2023-02-19T03:40:08.900Z,8.15
2023-02-19T03:45:43.049Z,9.50
2023-02-19T03:50:50.021Z,8.81
2023-02-19T03:56:34.034Z,9.10
2023-02-19T04:02:11.649Z,8.84
2023-02-19T04:07:13.779Z,9.53
2023-02-19T04:12:16.745Z,9.61
2023-02-19T04:17:48.462Z,9.94
2023-02-19T04:22:57.815Z,9.54
2023-02-19T04:27:59.502Z,9.09
2023-02-19T04:33:05.001Z,10.63
2023-02-19T04:38:06.758Z,10.30
2023-02-19T04:43:08.443Z,9.80
2023-02-19T04:48:10.415Z,10.63
2023-02-19T04:53:12.100Z,10.29
2023-02-19T04:58:13.851Z,9.84
2023-02-19T05:03:18.650Z,9.65
2023-02-19T05:08:20.532Z,10.37
2023-02-19T05:13:22.339Z,9.60
2023-02-19T05:18:24.150Z,10.08
2023-02-19T05:23:27.155Z,9.28
2023-02-19T05:28:29.105Z,9.83
2023-02-19T05:33:31.147Z,10.36
2023-02-19T05:38:32.846Z,10.35
2023-02-19T05:43:34.674Z,10.66
2023-02-19T05:48:36.732Z,10.63
2023-02-19T05:53:39.501Z,10.16
2023-02-19T05:58:41.127Z,10.32
2023-02-19T06:03:43.053Z,9.19
2023-02-19T06:08:44.907Z,9.75
2023-02-19T06:13:47.301Z,10.71
2023-02-19T06:18:49.085Z,10.52
2023-02-19T06:23:50.949Z,10.03
2023-02-19T06:28:53.548Z,10.73
2023-02-19T06:33:55.484Z,9.59
2023-02-19T06:39:00.817Z,9.07
2023-02-19T06:44:02.642Z,10.05
2023-02-19T06:49:05.623Z,9.41
2023-02-19T06:54:07.529Z,10.95
2023-02-19T06:59:19.231Z,9.15
2023-02-19T07:04:23.780Z,10.65
2023-02-19T07:09:25.542Z,10.26
2023-02-19T07:14:29.466Z,9.69
2023-02-19T07:19:31.257Z,9.71
2023-02-19T07:24:33.009Z,9.84
2023-02-19T07:29:34.782Z,10.20
2023-02-19T07:34:36.651Z,10.86
2023-02-19T07:39:38.592Z,9.99
2023-02-19T07:44:40.287Z,9.58
2023-02-19T07:49:41.895Z,10.74
2023-02-19T07:54:43.629Z,9.49
2023-02-19T07:59:45.451Z,9.93
2023-02-19T08:04:47.705Z,10.28
2023-02-19T08:10:09.317Z,10.67
2023-02-19T08:15:11.051Z,10.02
2023-02-19T08:20:12.857Z,10.38
2023-02-19T08:25:14.548Z,10.67
2023-02-19T08:30:16.326Z,10.97
2023-02-19T08:35:18.040Z,10.49
2023-02-19T08:40:19.830Z,11.23
2023-02-19T08:45:24.307Z,10.76
2023-02-19T08:50:26.847Z,10.56
2023-02-19T08:55:28.816Z,9.94
2023-02-19T09:00:30.750Z,10.28
2023-02-19T09:05:32.572Z,10.90
2023-02-19T09:10:37.132Z,10.55
2023-02-19T09:15:39.080Z,11.21
2023-02-19T09:20:40.820Z,10.30
2023-02-19T09:25:42.775Z,11.01
2023-02-19T09:30:44.515Z,11.03
2023-02-19T09:35:46.246Z,10.86
2023-02-19T09:40:48.026Z,10.70
2023-02-19T09:46:03.119Z,12.05
2023-02-19T09:51:06.965Z,10.93
2023-02-19T09:56:09.359Z,11.69
2023-02-19T10:01:12.501Z,11.65
2023-02-19T10:06:20.497Z,11.66
2023-02-19T10:11:25.854Z,10.19
2023-02-19T10:16:29.120Z,10.58
2023-02-19T10:21:33.578Z,11.37
2023-02-19T10:26:36.523Z,10.71
2023-02-19T10:31:38.391Z,10.62
2023-02-19T10:36:42.568Z,10.84
2023-02-19T10:41:46.967Z,11.25
2023-02-19T10:46:52.065Z,12.05
2023-02-19T10:51:56.770Z,11.62
2023-02-19T10:57:17.524Z,11.82
2023-02-19T11:06:30.286Z,9.29
2023-02-19T11:11:38.711Z,8.85
2023-02-19T11:17:03.960Z,8.22
2023-02-19T11:22:33.307Z,8.39
2023-02-19T11:27:34.949Z,9.00
2023-02-19T11:32:36.809Z,9.46
2023-02-19T11:37:57.838Z,9.07
2023-02-19T11:43:26.919Z,9.47
2023-02-19T11:48:54.897Z,9.08
2023-02-19T11:54:05.278Z,9.65
2023-02-19T11:59:45.194Z,9.31
2023-02-19T12:05:16.911Z,9.89
2023-02-19T12:10:43.135Z,9.84
2023-02-19T12:16:13.446Z,9.02
2023-02-19T12:21:51.558Z,9.10
2023-02-19T12:27:08.558Z,9.98
2023-02-19T12:32:28.115Z,8.84
2023-02-19T12:37:32.750Z,10.31
2023-02-19T12:42:34.468Z,10.12
2023-02-19T12:47:40.912Z,10.93
2023-02-19T12:52:47.760Z,10.18
2023-02-19T12:57:51.271Z,9.82
2023-02-19T13:03:20.898Z,9.68
2023-02-19T13:08:29.277Z,10.38
2023-02-19T13:13:44.664Z,10.36
2023-02-19T13:18:57.121Z,10.45
2023-02-19T13:24:03.179Z,9.88
2023-02-19T13:29:22.744Z,9.62
2023-02-19T13:34:47.901Z,9.68
2023-02-19T13:39:55.616Z,10.37
2023-02-19T13:44:58.851Z,10.11
2023-02-19T13:50:07.293Z,9.50
2023-02-19T13:55:50.946Z,9.57
2023-02-19T14:00:53.929Z,9.81
2023-02-19T14:06:06.399Z,9.32
2023-02-19T14:11:08.864Z,9.05
2023-02-19T14:16:35.203Z,9.14
2023-02-19T14:21:39.749Z,9.79
2023-02-19T14:26:42.340Z,9.82
2023-02-19T14:31:46.830Z,10.58
2023-02-19T14:36:54.831Z,11.11
2023-02-19T14:42:02.909Z,10.70
2023-02-19T14:47:09.562Z,11.38
2023-02-19T14:52:20.799Z,11.07
2023-02-19T14:57:27.624Z,11.16
2023-02-19T15:02:31.225Z,9.91
2023-02-19T15:07:34.200Z,11.37
2023-02-19T15:12:40.919Z,10.95
2023-02-19T15:17:42.866Z,10.82
2023-02-19T15:22:46.286Z,10.42
2023-02-19T15:27:48.305Z,11.54
2023-02-19T15:32:58.755Z,11.22
2023-02-19T15:38:01.215Z,11.41
2023-02-19T15:43:03.094Z,10.60
2023-02-19T15:48:11.798Z,11.49
2023-02-19T15:53:18.893Z,10.66
2023-02-19T15:58:33.379Z,10.67
2023-02-19T16:03:35.794Z,10.91
2023-02-19T16:08:39.853Z,10.70
2023-02-19T16:13:41.526Z,11.02
2023-02-19T16:18:48.834Z,11.38
2023-02-19T16:23:59.482Z,10.58
2023-02-19T16:29:01.236Z,10.67
2023-02-19T16:34:17.846Z,10.23
2023-02-19T16:39:20.957Z,9.81
2023-02-19T16:44:25.834Z,10.72
2023-02-19T16:49:27.521Z,10.86
2023-02-19T16:54:29.313Z,10.69
2023-02-19T16:59:31.057Z,10.47
2023-02-19T17:04:32.777Z,10.71
2023-02-19T17:09:34.589Z,10.62
2023-02-19T17:14:36.182Z,9.96
2023-02-19T17:19:39.322Z,10.93
2023-02-19T17:24:40.939Z,10.69
2023-02-19T17:29:42.878Z,10.54
2023-02-19T17:34:44.726Z,10.46
2023-02-19T17:39:46.378Z,10.50
2023-02-19T17:44:48.089Z,11.26
2023-02-19T17:49:49.698Z,11.37
2023-02-19T17:54:51.416Z,11.45
2023-02-19T17:59:53.101Z,10.92
2023-02-19T18:04:54.809Z,10.83
2023-02-19T18:09:56.536Z,10.25
2023-02-19T18:14:58.402Z,11.06
2023-02-19T18:20:00.508Z,10.37
2023-02-19T18:25:02.262Z,10.83
2023-02-19T18:30:04.560Z,10.42
2023-02-19T18:35:06.630Z,9.62
2023-02-19T18:40:09.351Z,11.15
2023-02-19T18:45:11.176Z,11.63
2023-02-19T18:50:13.810Z,10.08
2023-02-19T18:55:15.505Z,10.70
2023-02-19T19:00:26.556Z,9.73
2023-02-19T19:05:28.735Z,11.68
2023-02-19T19:10:30.986Z,11.45
2023-02-19T19:15:32.825Z,11.16
2023-02-19T19:20:34.671Z,10.97
2023-02-19T19:25:37.399Z,11.38
2023-02-19T19:30:39.231Z,11.43
2023-02-19T19:35:41.037Z,10.93
2023-02-19T19:40:42.640Z,11.52
2023-02-19T19:45:44.391Z,10.33
2023-02-19T19:50:46.118Z,10.52
2023-02-19T19:55:47.834Z,11.34
2023-02-19T20:00:49.565Z,11.09
2023-02-19T20:05:51.345Z,11.60
2023-02-19T20:10:53.010Z,10.96
2023-02-19T20:15:54.880Z,10.71
2023-02-19T20:20:56.540Z,11.81
2023-02-19T20:25:58.215Z,10.80
2023-02-19T20:30:59.953Z,11.29
2023-02-19T20:36:01.581Z,10.42
2023-02-19T20:41:04.187Z,11.84
2023-02-19T20:46:07.129Z,10.44
2023-02-19T20:51:09.100Z,11.46
2023-02-19T20:56:11.931Z,10.95
2023-02-19T21:01:13.858Z,13.19
2023-02-19T21:06:15.590Z,11.93
2023-02-19T21:11:17.436Z,11.13
2023-02-19T21:16:20.071Z,11.54
2023-02-19T21:21:25.364Z,10.98
2023-02-19T21:26:38.382Z,10.57
2023-02-19T21:31:45.951Z,11.36
2023-02-19T21:36:49.127Z,12.12
2023-02-19T21:41:51.777Z,11.82
2023-02-19T21:46:53.544Z,12.67
2023-02-19T21:51:55.245Z,12.29
2023-02-19T21:56:56.953Z,12.44
2023-02-19T22:01:58.663Z,12.08
2023-02-19T22:07:00.394Z,11.80
2023-02-19T22:12:02.074Z,11.05
2023-02-19T22:17:03.746Z,10.98
2023-02-19T22:22:05.736Z,11.71
2023-02-19T22:27:07.503Z,11.76
2023-02-19T22:32:09.416Z,11.76
2023-02-19T22:37:11.310Z,10.48
2023-02-19T22:42:12.991Z,11.53
2023-02-19T22:47:14.601Z,11.83
2023-02-19T22:52:16.347Z,10.91
2023-02-19T22:57:17.994Z,10.61
2023-02-19T23:02:19.731Z,10.06
2023-02-19T23:07:21.471Z,10.85
2023-02-19T23:12:23.306Z,10.06
2023-02-19T23:17:24.944Z,10.67
2023-02-19T23:22:26.639Z,10.78
2023-02-19T23:27:28.661Z,10.41
2023-02-19T23:32:30.404Z,10.82
2023-02-19T23:37:32.266Z,9.46
2023-02-19T23:42:34.027Z,9.15
2023-02-19T23:47:35.718Z,9.88
2023-02-19T23:52:37.427Z,10.15
2023-02-19T23:57:39.308Z,9.85
